Warroad Airport

About
Name: Warroad Airport
Identifier:  RRT/KRRT
Serves:  Warroad, Minnesota
Owner:  City of Warroad
Public/Private:  Public
Local Time:  25. Aug 21:52 CDT
Description: Warroad International Memorial Airport[3], also known as Swede Carlson Field,[2] is a public use airport in Roseau County, Minnesota, United States.[1] It is owned by the City of Warroad and located two nautical miles northwest of its central business district.[1] This airport is included in the National Plan of Integrated Airport Systems for 2017–2021, which categorized it as a general aviation facility.[5]
Source: Wikipedia
Location
Runways
Identifier Length (m/ft) Surface
13/31 5,400/5,400 Asphalt
4/22 2,987/2,987 Turf
Statistics
Flights per Day:
0 flights
Distance: 479km (298mi)
Flights delayed:
0% (0 flights per day delayed)
Delay Average: 34 minutes
Current Weather
 20 C (Humidity: 82%)
  10kt (18km/h / 11mph) from 170°
15 knots Gusts

  16km (10 mi.)
 METAR KRRT 251559Z AUTO 17010G15KT 10SM 20/17 A2987 RMK AO2

Current Delays

Departures
N/A
Arrivals
N/A

Destinations

Top Destinations
Airport Flights
per week
Seats
per week
  Minneapolis (MSP) 2 - 0 0
  Minneapolis (FCM) 0 - 0 0
  Goshen (GSH) 0 - 0 0
  Eau Claire (EAU) 0 - 0 0

Airlines & Planes

Top Airlines
Airline Flights
per Day
Seats
per Day
Jet Charter Inc ( Franklin Lakes Nj ) 0 -
  Nolinor Aviation 0 -
Top Plane Types
Model Flights Seats
Beech 1900D 0.4/day - 0
Beech B200 Super King Air 0.1/day - 0
Cessna C206 0.0/day - 0